YZA weather

Cache Creek-Ashcroft Regional Airport
Cache Creek, British Columbia, Canada

Public forecast

Using degrees Celsius for public forecast. Weather courtesy of forecast.io.

Closest aviation weather report (METAR) to Cache Creek-Ashcroft Regional Airport

Closest report is Kamloops Airport, 33.6 nm (62.3 km) E. Retrieved 2020/06/02 04:00 UTC (51 minutes ago):

CYKA 020400Z 20008KT 190V350 40SM FEW077 SCT120 18/03 A3002 RMK AC2AC2 SLP170 DENSITY ALT 1700FT

Closest aviation forecast (TAF) to Cache Creek-Ashcroft Regional Airport

Closest forecast is Kamloops Airport, 33.6 nm (62.3 km) E. Retrieved 2020-06-02 01:00 UTC (4 hours ago):

TAF CYKA 020038Z 0201/0205 VRB03KT P6SM SCT080 TEMPO 0201/0203 P6SM -SHRA BKN080 RMK NXT FCST WILL BE ISSUED AT 021445Z